createdAt,value
2023-10-14T00:02:22.252Z,99859.19
2023-10-14T00:04:53.769Z,99851.50
2023-10-14T00:07:26.039Z,99847.87
2023-10-14T00:09:58.357Z,99846.78
2023-10-14T00:12:29.787Z,99844.34
2023-10-14T00:15:04.553Z,99838.34
2023-10-14T00:17:36.977Z,99830.78
2023-10-14T00:20:06.136Z,99829.56
2023-10-14T00:22:34.091Z,99823.09
2023-10-14T00:25:01.573Z,99830.16
2023-10-14T00:27:29.390Z,99833.94
2023-10-14T00:30:10.728Z,99836.16
2023-10-14T00:32:40.299Z,99826.22
2023-10-14T00:35:10.641Z,99834.16
2023-10-14T00:37:38.614Z,99834.28
2023-10-14T00:40:13.004Z,99834.03
2023-10-14T00:42:43.067Z,99829.09
2023-10-14T00:45:12.512Z,99826.13
2023-10-14T00:47:41.820Z,99814.25
2023-10-14T00:50:22.766Z,99819.03
2023-10-14T00:52:58.541Z,99812.94
2023-10-14T00:55:39.520Z,99811.25
2023-10-14T00:58:07.296Z,99804.66
2023-10-14T01:00:39.273Z,99794.81
2023-10-14T01:03:11.724Z,99796.91
2023-10-14T01:05:39.674Z,99789.59
2023-10-14T01:08:12.618Z,99780.84
2023-10-14T01:10:43.172Z,99777.22
2023-10-14T01:13:15.395Z,99771.75
2023-10-14T01:15:50.640Z,99763.31
2023-10-14T01:18:19.011Z,99768.81
2023-10-14T01:20:47.670Z,99763.97
2023-10-14T01:23:18.639Z,99759.13
2023-10-14T01:25:49.115Z,99756.94
2023-10-14T01:28:31.405Z,99753.91
2023-10-14T01:31:07.961Z,99735.13
2023-10-14T01:33:37.397Z,99744.16
2023-10-14T01:36:05.885Z,99731.72
2023-10-14T01:38:34.195Z,99738.09
2023-10-14T01:41:05.798Z,99739.00
2023-10-14T01:43:33.401Z,99742.06
2023-10-14T01:46:02.301Z,99744.19
2023-10-14T01:48:33.041Z,99726.97
2023-10-14T01:51:01.690Z,99720.94
2023-10-14T01:53:33.171Z,99708.44
2023-10-14T01:56:02.821Z,99716.28
2023-10-14T01:58:34.873Z,99717.31
2023-10-14T02:01:14.815Z,99711.25
2023-10-14T02:03:52.862Z,99702.53
2023-10-14T02:06:26.406Z,99704.44
2023-10-14T02:08:59.452Z,99705.22
2023-10-14T02:11:34.759Z,99707.44
2023-10-14T02:14:07.649Z,99710.38
2023-10-14T02:16:43.387Z,99702.38
2023-10-14T02:19:27.298Z,99690.25
2023-10-14T02:22:01.590Z,99691.31
2023-10-14T02:24:29.398Z,99688.69
2023-10-14T02:27:07.919Z,99686.47
2023-10-14T02:29:35.427Z,99675.25
2023-10-14T02:32:03.239Z,99680.06
2023-10-14T02:34:32.046Z,99684.56
2023-10-14T02:37:02.884Z,99685.16
2023-10-14T02:39:30.750Z,99680.94
2023-10-14T02:42:01.888Z,99692.81
2023-10-14T02:44:34.375Z,99693.75
2023-10-14T02:47:05.760Z,99692.16
2023-10-14T02:49:56.859Z,99686.00
2023-10-14T02:52:30.968Z,99678.97
2023-10-14T02:55:38.535Z,99668.59
2023-10-14T02:58:07.579Z,99679.06
2023-10-14T03:00:35.096Z,99674.09
2023-10-14T03:03:14.237Z,99671.81
2023-10-14T03:05:52.405Z,99672.75
2023-10-14T03:08:23.248Z,99680.66
2023-10-14T03:10:57.265Z,99682.44
2023-10-14T03:13:25.478Z,99678.78
2023-10-14T03:15:55.942Z,99676.75
2023-10-14T03:18:32.007Z,99674.06
2023-10-14T03:21:00.593Z,99673.34
2023-10-14T03:23:29.410Z,99675.81
2023-10-14T03:26:16.295Z,99668.56
2023-10-14T03:28:51.347Z,99667.00
2023-10-14T03:31:20.714Z,99666.44
2023-10-14T03:33:48.763Z,99659.81
2023-10-14T03:36:21.422Z,99661.44
2023-10-14T03:38:57.153Z,99654.91
2023-10-14T03:41:30.140Z,99660.06
2023-10-14T03:43:58.095Z,99658.66
2023-10-14T03:46:36.766Z,99659.00
2023-10-14T03:49:22.873Z,99652.50
2023-10-14T03:51:55.889Z,99643.09
2023-10-14T03:54:25.422Z,99639.50
2023-10-14T03:56:53.488Z,99644.25
2023-10-14T03:59:23.805Z,99641.28
2023-10-14T04:02:00.362Z,99641.28
2023-10-14T04:04:30.173Z,99641.50
2023-10-14T04:07:01.161Z,99633.19
2023-10-14T04:09:52.439Z,99632.22
2023-10-14T04:12:39.314Z,99624.31
2023-10-14T04:15:14.095Z,99636.28
2023-10-14T04:17:47.616Z,99633.97
2023-10-14T04:20:22.543Z,99638.28
2023-10-14T04:22:54.435Z,99631.94
2023-10-14T04:25:25.840Z,99632.31
2023-10-14T04:27:54.217Z,99637.34
2023-10-14T04:30:33.248Z,99640.88
2023-10-14T04:33:04.407Z,99635.31
2023-10-14T04:35:34.502Z,99641.41
2023-10-14T04:38:05.124Z,99637.53
2023-10-14T04:40:35.470Z,99641.22
2023-10-14T04:43:17.925Z,99639.53
2023-10-14T04:45:52.425Z,99647.47
2023-10-14T04:48:29.362Z,99635.56
2023-10-14T04:51:01.405Z,99631.38
2023-10-14T04:53:28.910Z,99634.06
2023-10-14T04:55:56.780Z,99637.38
2023-10-14T04:58:34.090Z,99625.69
2023-10-14T05:01:02.453Z,99614.31
2023-10-14T05:03:30.709Z,99608.66
2023-10-14T05:05:58.416Z,99616.66
2023-10-14T05:08:44.989Z,99608.94
2023-10-14T05:11:19.762Z,99607.94
2023-10-14T05:13:55.291Z,99615.53
2023-10-14T05:16:23.255Z,99611.63
2023-10-14T05:19:08.655Z,99615.31
2023-10-14T05:21:36.696Z,99620.47
2023-10-14T05:24:10.552Z,99612.91
2023-10-14T05:26:45.481Z,99618.81
2023-10-14T05:29:20.325Z,99620.91
2023-10-14T05:31:48.958Z,99614.94
2023-10-14T05:34:22.928Z,99615.03
2023-10-14T05:36:53.857Z,99614.47
2023-10-14T05:39:22.882Z,99609.53
2023-10-14T05:41:57.006Z,99613.28
2023-10-14T05:44:28.324Z,99617.16
2023-10-14T05:46:56.468Z,99616.47
2023-10-14T05:49:26.078Z,99618.00
2023-10-14T05:51:54.855Z,99617.19
2023-10-14T05:54:23.979Z,99619.13
2023-10-14T05:56:54.219Z,99627.59
2023-10-14T05:59:22.330Z,99630.97
2023-10-14T06:01:50.153Z,99618.50
2023-10-14T06:04:18.297Z,99618.00
2023-10-14T06:06:46.032Z,99628.31
2023-10-14T06:09:17.853Z,99614.06
2023-10-14T06:11:48.477Z,99616.16
2023-10-14T06:14:15.871Z,99619.25
2023-10-14T06:16:43.350Z,99611.94
2023-10-14T06:19:14.250Z,99613.72
2023-10-14T06:21:41.864Z,99613.37
2023-10-14T06:24:12.029Z,99620.06
2023-10-14T06:26:39.962Z,99613.94
2023-10-14T06:29:10.977Z,99613.06
2023-10-14T06:31:42.224Z,99608.72
2023-10-14T06:34:12.616Z,99611.41
2023-10-14T06:36:40.106Z,99611.66
2023-10-14T06:39:16.690Z,99624.72
2023-10-14T06:41:44.780Z,99622.34
2023-10-14T06:44:16.502Z,99615.81
2023-10-14T06:46:47.328Z,99620.34
2023-10-14T06:49:15.396Z,99619.59
2023-10-14T06:51:43.476Z,99620.87
2023-10-14T06:54:11.180Z,99618.69
2023-10-14T06:56:38.622Z,99626.00
2023-10-14T06:59:06.924Z,99624.72
2023-10-14T07:01:36.008Z,99621.91
2023-10-14T07:04:04.153Z,99625.91
2023-10-14T07:06:32.576Z,99611.87
2023-10-14T07:09:06.598Z,99611.78
2023-10-14T07:11:34.001Z,99604.94
2023-10-14T07:14:01.740Z,99601.72
2023-10-14T07:16:29.700Z,99597.75
2023-10-14T07:18:57.348Z,99604.03
2023-10-14T07:21:25.166Z,99598.91
2023-10-14T07:23:52.658Z,99595.34
2023-10-14T07:26:20.159Z,99589.37
2023-10-14T07:28:52.739Z,99578.09
2023-10-14T07:31:25.377Z,99589.53
2023-10-14T07:33:54.348Z,99578.25
2023-10-14T07:36:21.917Z,99584.53
2023-10-14T07:38:49.357Z,99578.59
2023-10-14T07:41:17.418Z,99583.03
2023-10-14T07:43:45.185Z,99576.72
2023-10-14T07:46:12.795Z,99579.78
2023-10-14T07:48:41.581Z,99574.50
2023-10-14T07:51:28.048Z,99573.59
2023-10-14T07:53:57.492Z,99573.59
2023-10-14T07:56:24.959Z,99578.12
2023-10-14T07:58:54.511Z,99582.69
2023-10-14T08:01:24.762Z,99583.59
2023-10-14T08:03:58.182Z,99577.50
2023-10-14T08:06:27.316Z,99578.34
2023-10-14T08:08:55.054Z,99574.06
2023-10-14T08:11:23.392Z,99568.78
2023-10-14T08:13:51.030Z,99567.00
2023-10-14T08:16:19.838Z,99563.41
2023-10-14T08:18:48.047Z,99563.38
2023-10-14T08:21:15.686Z,99563.34
2023-10-14T08:23:43.379Z,99560.63
2023-10-14T08:26:15.153Z,99562.19
2023-10-14T08:28:43.936Z,99571.91
2023-10-14T08:31:13.145Z,99568.09
2023-10-14T08:33:44.001Z,99561.66
2023-10-14T08:36:14.829Z,99554.62
2023-10-14T08:38:44.550Z,99552.19
2023-10-14T08:41:16.876Z,99541.47
2023-10-14T08:43:51.131Z,99532.41
2023-10-14T08:46:20.114Z,99551.59
2023-10-14T08:48:51.460Z,99542.63
2023-10-14T08:51:19.944Z,99540.50
2023-10-14T08:53:53.682Z,99532.16
2023-10-14T08:56:23.766Z,99532.78
2023-10-14T08:58:51.581Z,99533.34
2023-10-14T09:01:19.862Z,99539.16
2023-10-14T09:03:50.977Z,99544.88
2023-10-14T09:06:19.705Z,99542.09
2023-10-14T09:08:49.181Z,99538.75
2023-10-14T09:11:29.546Z,99541.09
2023-10-14T09:14:05.152Z,99537.09
2023-10-14T09:16:37.866Z,99539.75
2023-10-14T09:19:06.595Z,99531.72
2023-10-14T09:21:44.295Z,99529.37
2023-10-14T09:24:12.377Z,99523.25
2023-10-14T09:26:45.083Z,99520.47
2023-10-14T09:29:13.196Z,99517.12
2023-10-14T09:31:42.100Z,99514.31
2023-10-14T09:34:23.677Z,99508.56
2023-10-14T09:36:53.441Z,99508.16
2023-10-14T09:39:26.146Z,99514.41
2023-10-14T09:41:55.117Z,99522.84
2023-10-14T09:44:23.019Z,99518.56
2023-10-14T09:46:54.109Z,99509.34
2023-10-14T09:49:24.346Z,99507.50
2023-10-14T09:51:55.202Z,99502.06
2023-10-14T09:54:23.699Z,99494.47
2023-10-14T09:56:51.650Z,99486.34
2023-10-14T09:59:22.676Z,99483.78
2023-10-14T10:01:51.951Z,99488.09
2023-10-14T10:04:23.420Z,99481.75
2023-10-14T10:07:05.349Z,99488.88
2023-10-14T10:09:49.199Z,99481.59
2023-10-14T10:12:17.902Z,99484.88
2023-10-14T10:14:45.631Z,99484.50
2023-10-14T10:17:14.151Z,99466.91
2023-10-14T10:20:10.818Z,99465.03
2023-10-14T10:22:52.161Z,99455.66
2023-10-14T10:25:24.269Z,99448.62
2023-10-14T10:27:56.411Z,99446.78
2023-10-14T10:30:25.992Z,99446.81
2023-10-14T10:32:53.834Z,99426.69
2023-10-14T10:35:21.919Z,99428.22
2023-10-14T10:37:55.857Z,99419.97
2023-10-14T10:40:28.215Z,99419.50
2023-10-14T10:43:14.013Z,99419.91
2023-10-14T10:45:43.742Z,99426.00
2023-10-14T10:48:17.686Z,99437.13
2023-10-14T10:50:51.778Z,99442.31
2023-10-14T10:53:20.796Z,99431.66
2023-10-14T10:55:52.077Z,99423.53
2023-10-14T10:58:22.289Z,99425.16
2023-10-14T11:00:51.681Z,99423.81
2023-10-14T11:03:19.450Z,99423.59
2023-10-14T11:05:48.090Z,99425.62
2023-10-14T11:08:17.472Z,99415.84
2023-10-14T11:10:49.709Z,99414.72
2023-10-14T11:13:17.845Z,99405.50
2023-10-14T11:15:48.916Z,99406.37
2023-10-14T11:18:31.693Z,99408.75
2023-10-14T11:21:04.612Z,99415.78
2023-10-14T11:23:35.368Z,99410.28
2023-10-14T11:26:09.574Z,99405.87
2023-10-14T11:28:39.935Z,99402.75
2023-10-14T11:31:11.754Z,99402.94
2023-10-14T11:33:39.842Z,99393.88
2023-10-14T11:36:07.651Z,99396.91
2023-10-14T11:38:44.182Z,99396.72
2023-10-14T11:41:13.830Z,99387.62
2023-10-14T11:43:45.415Z,99377.72
2023-10-14T11:46:14.145Z,99383.56
2023-10-14T11:48:46.301Z,99380.59
2023-10-14T11:51:21.040Z,99381.09
2023-10-14T11:53:54.049Z,99374.00
2023-10-14T11:56:22.113Z,99368.28
2023-10-14T11:58:50.859Z,99374.16
2023-10-14T12:01:24.937Z,99362.47
2023-10-14T12:03:53.526Z,99366.50
2023-10-14T12:06:21.190Z,99369.19
2023-10-14T12:08:52.835Z,99373.63
2023-10-14T12:11:21.193Z,99364.44
2023-10-14T12:13:51.119Z,99360.31
2023-10-14T12:16:19.650Z,99356.09
2023-10-14T12:18:47.965Z,99351.81
2023-10-14T12:21:15.603Z,99344.34
2023-10-14T12:23:47.285Z,99337.47
2023-10-14T12:26:30.961Z,99345.78
2023-10-14T12:29:08.916Z,99340.56
2023-10-14T12:31:40.064Z,99339.63
2023-10-14T12:34:10.261Z,99336.81
2023-10-14T12:36:42.386Z,99335.22
2023-10-14T12:39:20.966Z,99336.44
2023-10-14T12:41:52.112Z,99333.03
2023-10-14T12:44:23.096Z,99338.56
2023-10-14T12:46:50.930Z,99328.28
2023-10-14T12:49:21.931Z,99331.25
2023-10-14T12:51:50.120Z,99338.56
2023-10-14T12:54:18.753Z,99335.00
2023-10-14T12:56:47.313Z,99336.50
2023-10-14T12:59:15.105Z,99334.16
2023-10-14T13:01:59.954Z,99334.75
2023-10-14T13:04:31.009Z,99334.62
2023-10-14T13:06:59.382Z,99328.41
2023-10-14T13:09:31.481Z,99324.94
2023-10-14T13:12:00.129Z,99328.16
2023-10-14T13:14:28.540Z,99327.94
2023-10-14T13:17:02.969Z,99333.34
2023-10-14T13:19:36.287Z,99329.69
2023-10-14T13:22:11.490Z,99332.69
2023-10-14T13:24:39.732Z,99326.16
2023-10-14T13:27:07.958Z,99326.16
2023-10-14T13:29:37.515Z,99321.47
2023-10-14T13:32:05.898Z,99321.56
2023-10-14T13:34:34.189Z,99319.34
2023-10-14T13:37:02.003Z,99322.03
2023-10-14T13:39:36.401Z,99315.37
2023-10-14T13:42:07.270Z,99319.53
2023-10-14T13:44:36.019Z,99310.72
2023-10-14T13:47:06.272Z,99304.81
2023-10-14T13:49:35.555Z,99310.47
2023-10-14T13:52:05.512Z,99310.81
2023-10-14T13:54:34.207Z,99308.13
2023-10-14T13:57:02.564Z,99306.50
2023-10-14T13:59:30.103Z,99306.03
2023-10-14T14:01:57.665Z,99308.69
2023-10-14T14:04:25.683Z,99302.66
2023-10-14T14:06:53.920Z,99300.91
2023-10-14T14:09:24.692Z,99300.06
2023-10-14T14:11:57.266Z,99305.50
2023-10-14T14:14:26.068Z,99298.56
2023-10-14T14:16:54.329Z,99296.69
2023-10-14T14:19:22.421Z,99289.03
2023-10-14T14:21:53.447Z,99288.62
2023-10-14T14:24:23.927Z,99289.12
2023-10-14T14:26:52.408Z,99288.66
2023-10-14T14:29:19.941Z,99283.09
2023-10-14T14:31:48.462Z,99281.75
2023-10-14T14:34:16.458Z,99276.50
2023-10-14T14:36:46.196Z,99285.59
2023-10-14T14:39:16.926Z,99284.53
2023-10-14T14:41:45.598Z,99281.81
2023-10-14T14:44:14.540Z,99271.00
2023-10-14T14:46:43.438Z,99269.66
2023-10-14T14:49:13.942Z,99270.66
2023-10-14T14:51:43.726Z,99269.53
2023-10-14T14:54:11.674Z,99276.72
2023-10-14T14:56:39.305Z,99270.81
2023-10-14T14:59:06.778Z,99264.41
2023-10-14T15:01:35.918Z,99276.25
2023-10-14T15:04:05.436Z,99273.38
2023-10-14T15:06:33.102Z,99273.06
2023-10-14T15:09:01.771Z,99272.97
2023-10-14T15:11:31.142Z,99268.56
2023-10-14T15:13:58.615Z,99278.63
2023-10-14T15:16:40.864Z,99276.13
2023-10-14T15:19:09.375Z,99280.56
2023-10-14T15:21:37.330Z,99276.00
2023-10-14T15:24:06.734Z,99276.59
2023-10-14T15:26:34.475Z,99276.13
2023-10-14T15:29:05.276Z,99281.22
2023-10-14T15:31:33.127Z,99275.69
2023-10-14T15:34:03.156Z,99279.69
2023-10-14T15:36:30.693Z,99274.97
2023-10-14T15:38:59.380Z,99275.31
2023-10-14T15:41:27.145Z,99270.97
2023-10-14T15:43:54.708Z,99272.91
2023-10-14T15:46:22.212Z,99275.53
2023-10-14T15:48:52.811Z,99267.88
2023-10-14T15:51:20.679Z,99276.16
2023-10-14T15:53:54.016Z,99275.19
2023-10-14T15:56:21.950Z,99277.44
2023-10-14T15:58:51.817Z,99281.31
2023-10-14T16:01:21.600Z,99281.19
2023-10-14T16:03:49.638Z,99277.47
2023-10-14T16:06:17.279Z,99276.84
2023-10-14T16:08:44.784Z,99284.06
2023-10-14T16:11:16.079Z,99287.41
2023-10-14T16:13:43.902Z,99280.31
2023-10-14T16:16:11.684Z,99285.97
2023-10-14T16:18:39.224Z,99290.53
2023-10-14T16:21:06.716Z,99282.25
2023-10-14T16:23:34.524Z,99291.16
2023-10-14T16:26:02.010Z,99288.44
2023-10-14T16:28:29.471Z,99296.84
2023-10-14T16:31:00.100Z,99293.66
2023-10-14T16:33:28.870Z,99294.13
2023-10-14T16:35:58.456Z,99303.22
2023-10-14T16:38:26.059Z,99302.41
2023-10-14T16:40:53.667Z,99302.38
2023-10-14T16:43:24.453Z,99308.28
2023-10-14T16:45:52.728Z,99302.66
2023-10-14T16:48:20.979Z,99306.34
2023-10-14T16:50:48.677Z,99300.63
2023-10-14T16:53:17.195Z,99304.41
2023-10-14T16:55:46.658Z,99305.41
2023-10-14T16:58:15.234Z,99303.59
2023-10-14T17:00:42.847Z,99298.44
2023-10-14T17:03:11.223Z,99292.84
2023-10-14T17:05:41.052Z,99297.16
2023-10-14T17:08:10.365Z,99298.13
2023-10-14T17:10:39.740Z,99303.44
2023-10-14T17:13:10.066Z,99301.94
2023-10-14T17:15:38.460Z,99305.56
2023-10-14T17:18:07.929Z,99312.09
2023-10-14T17:20:36.603Z,99310.59
2023-10-14T17:23:05.500Z,99301.06
2023-10-14T17:25:34.694Z,99301.88
2023-10-14T17:28:07.215Z,99302.28
2023-10-14T17:30:34.832Z,99298.38
2023-10-14T17:33:03.899Z,99301.16
2023-10-14T17:35:33.552Z,99295.72
2023-10-14T17:38:02.334Z,99297.56
2023-10-14T17:40:30.975Z,99300.50
2023-10-14T17:43:05.937Z,99301.75
2023-10-14T17:45:34.987Z,99308.34
2023-10-14T17:48:07.691Z,99308.66
2023-10-14T17:50:36.950Z,99312.44
2023-10-14T17:53:10.886Z,99316.84
2023-10-14T17:55:38.752Z,99312.47
2023-10-14T17:58:06.897Z,99316.84
2023-10-14T18:00:35.800Z,99315.13
2023-10-14T18:03:09.387Z,99315.97
2023-10-14T18:05:44.568Z,99321.25
2023-10-14T18:08:13.941Z,99322.78
2023-10-14T18:10:42.712Z,99322.97
2023-10-14T18:13:12.765Z,99324.56
2023-10-14T18:15:42.044Z,99319.38
2023-10-14T18:18:10.368Z,99322.13
2023-10-14T18:20:39.081Z,99334.62
2023-10-14T18:23:08.503Z,99326.62
2023-10-14T18:25:44.256Z,99324.00
2023-10-14T18:28:14.021Z,99330.03
2023-10-14T18:30:42.278Z,99327.59
2023-10-14T18:33:12.808Z,99324.06
2023-10-14T18:35:41.975Z,99320.47
2023-10-14T18:38:12.474Z,99325.00
2023-10-14T18:40:44.255Z,99319.69
2023-10-14T18:43:14.710Z,99329.34
2023-10-14T18:45:44.634Z,99323.25
2023-10-14T18:48:13.757Z,99331.19
2023-10-14T18:50:43.279Z,99328.56
2023-10-14T18:53:14.125Z,99336.44
2023-10-14T18:55:52.388Z,99332.81
2023-10-14T18:58:21.739Z,99328.44
2023-10-14T19:00:50.754Z,99336.38
2023-10-14T19:03:19.487Z,99337.28
2023-10-14T19:05:48.034Z,99331.16
2023-10-14T19:08:16.943Z,99326.75
2023-10-14T19:10:50.008Z,99326.78
2023-10-14T19:13:20.820Z,99335.56
2023-10-14T19:15:55.365Z,99328.50
2023-10-14T19:18:24.719Z,99335.53
2023-10-14T19:20:54.047Z,99343.38
2023-10-14T19:23:30.502Z,99346.88
2023-10-14T19:26:04.882Z,99353.94
2023-10-14T19:28:33.304Z,99352.22
2023-10-14T19:31:03.684Z,99340.81
2023-10-14T19:33:32.721Z,99349.56
2023-10-14T19:36:07.467Z,99353.13
2023-10-14T19:38:38.976Z,99356.62
2023-10-14T19:41:07.996Z,99354.88
2023-10-14T19:43:38.453Z,99353.13
2023-10-14T19:46:10.847Z,99347.84
2023-10-14T19:48:44.674Z,99346.06
2023-10-14T19:51:15.146Z,99340.81
2023-10-14T19:53:44.697Z,99345.22
2023-10-14T19:56:13.714Z,99353.13
2023-10-14T19:58:45.084Z,99353.09
2023-10-14T20:01:17.580Z,99354.84
2023-10-14T20:03:47.253Z,99347.88
2023-10-14T20:06:20.483Z,99346.97
2023-10-14T20:08:51.935Z,99355.72
2023-10-14T20:11:20.209Z,99354.88
2023-10-14T20:13:48.573Z,99353.97
2023-10-14T20:16:17.845Z,99349.59
2023-10-14T20:18:46.410Z,99346.09
2023-10-14T20:21:15.286Z,99345.22
2023-10-14T20:23:44.976Z,99341.72
2023-10-14T20:26:14.161Z,99343.44
2023-10-14T20:28:46.067Z,99350.44
2023-10-14T20:31:14.719Z,99345.19
2023-10-14T20:33:42.815Z,99350.50
2023-10-14T20:36:10.521Z,99347.84
2023-10-14T20:38:37.981Z,99354.84
2023-10-14T20:41:07.763Z,99342.59
2023-10-14T20:43:36.121Z,99346.09
2023-10-14T20:46:10.416Z,99346.09
2023-10-14T20:48:39.245Z,99354.84
2023-10-14T20:51:11.059Z,99353.09
2023-10-14T20:53:38.745Z,99351.34
2023-10-14T20:56:14.880Z,99348.69
2023-10-14T20:58:42.879Z,99338.16
2023-10-14T21:01:15.591Z,99340.78
2023-10-14T21:03:44.048Z,99339.06
2023-10-14T21:08:39.749Z,99336.41
2023-10-14T21:11:11.904Z,99339.94
2023-10-14T21:13:39.733Z,99337.25
2023-10-14T21:16:07.269Z,99349.47
2023-10-14T21:18:35.831Z,99341.62
2023-10-14T21:21:11.148Z,99345.97
2023-10-14T21:23:39.430Z,99356.50
2023-10-14T21:26:07.092Z,99354.81
2023-10-14T21:28:34.693Z,99357.41
2023-10-14T21:31:03.772Z,99358.25
2023-10-14T21:33:32.585Z,99357.41
2023-10-14T21:36:00.189Z,99360.91
2023-10-14T21:38:27.978Z,99355.72
2023-10-14T21:40:55.579Z,99356.56
2023-10-14T21:43:23.691Z,99363.53
2023-10-14T21:45:52.335Z,99355.69
2023-10-14T21:48:20.659Z,99355.69
2023-10-14T21:50:48.128Z,99350.41
2023-10-14T21:53:15.862Z,99349.56
2023-10-14T21:55:43.526Z,99347.81
2023-10-14T21:58:15.079Z,99346.97
2023-10-14T22:00:49.991Z,99347.84
2023-10-14T22:03:21.371Z,99347.84
2023-10-14T22:05:49.409Z,99339.88
2023-10-14T22:08:19.745Z,99335.44
2023-10-14T22:10:53.445Z,99327.50
2023-10-14T22:13:22.821Z,99323.88
2023-10-14T22:15:51.441Z,99327.44
2023-10-14T22:18:21.802Z,99336.06
2023-10-14T22:20:51.519Z,99339.59
2023-10-14T22:23:19.388Z,99344.91
2023-10-14T22:25:47.136Z,99349.06
2023-10-14T22:28:17.017Z,99351.59
2023-10-14T22:30:46.984Z,99354.22
2023-10-14T22:33:14.892Z,99342.81
2023-10-14T22:35:43.302Z,99344.53
2023-10-14T22:38:13.267Z,99344.66
2023-10-14T22:40:43.827Z,99344.72
2023-10-14T22:43:12.159Z,99337.66
2023-10-14T22:45:39.830Z,99340.16
2023-10-14T22:48:08.476Z,99341.16
2023-10-14T22:50:38.655Z,99350.66
2023-10-14T22:53:08.049Z,99341.09
2023-10-14T22:55:35.997Z,99339.31
2023-10-14T22:58:06.286Z,99334.81
2023-10-14T23:00:34.178Z,99348.09
2023-10-14T23:03:10.819Z,99356.91
2023-10-14T23:05:42.767Z,99357.94
2023-10-14T23:08:14.128Z,99350.00
2023-10-14T23:10:42.144Z,99355.34
2023-10-14T23:13:09.986Z,99344.75
2023-10-14T23:15:40.365Z,99347.44
2023-10-14T23:18:08.093Z,99355.34
2023-10-14T23:20:36.403Z,99355.47
2023-10-14T23:23:06.501Z,99370.28
2023-10-14T23:25:36.345Z,99359.88
2023-10-14T23:28:04.900Z,99354.44
2023-10-14T23:30:32.522Z,99373.00
2023-10-14T23:33:01.722Z,99353.66
2023-10-14T23:35:29.783Z,99370.53
2023-10-14T23:38:02.882Z,99376.66
2023-10-14T23:40:31.912Z,99383.69
2023-10-14T23:43:01.281Z,99390.72
2023-10-14T23:45:32.489Z,99395.97
2023-10-14T23:48:02.909Z,99401.31
2023-10-14T23:50:31.661Z,99389.00
2023-10-14T23:53:02.034Z,99389.91
2023-10-14T23:55:29.786Z,99404.78
2023-10-14T23:57:59.814Z,99398.66
